Terminal Aerodrome Forecast
Issued by NWS Detroit/Pontiac, MI

Home | Current Version | Previous Version | Text Only | Print | Product List | Glossary On
Versions: 1 2 3 4 5 6 7 8 9 10 11 12 13 14 15 16 17 18 19 20 21 22 23 24 25
000
FTUS43 KDTX 031918 AAA
TAFDTW
TAF AMD
KDTW 031918Z 0319/0424 26008KT P6SM BKN025 OVC035
     FM032300 24006KT P6SM OVC028
     FM040100 23005KT P6SM BKN030
     FM040900 22005KT P6SM SCT030 OVC150
     FM041400 16005KT P6SM BKN040 OVC100
     FM042200 14006KT P6SM -RASN OVC030=

USA.gov is the U.S. government's official web portal to all federal, state and local government web resources and services.